createdAt,value
2024-03-19T00:00:00.162Z,94771.00
2024-03-19T00:01:00.189Z,94772.00
2024-03-19T00:02:00.239Z,94775.00
2024-03-19T00:03:00.308Z,94772.00
2024-03-19T00:04:00.393Z,94772.00
2024-03-19T00:05:00.467Z,94773.00
2024-03-19T00:06:00.488Z,94771.00
2024-03-19T00:07:00.537Z,94773.00
2024-03-19T00:08:00.607Z,94775.00
2024-03-19T00:09:00.674Z,94778.00
2024-03-19T00:10:00.747Z,94780.00
2024-03-19T00:11:00.762Z,94781.00
2024-03-19T00:12:00.837Z,94778.00
2024-03-19T00:13:00.911Z,94779.00
2024-03-19T00:14:00.975Z,94779.00
2024-03-19T00:15:01.019Z,94778.00
2024-03-19T00:16:01.176Z,94778.00
2024-03-19T00:17:01.134Z,94779.00
2024-03-19T00:18:01.205Z,94778.00
2024-03-19T00:19:01.269Z,94777.00
2024-03-19T00:20:01.336Z,94778.00
2024-03-19T00:21:01.377Z,94779.00
2024-03-19T00:22:01.433Z,94778.00
2024-03-19T00:23:01.506Z,94781.00
2024-03-19T00:24:01.551Z,94782.00
2024-03-19T00:25:01.595Z,94783.00
2024-03-19T00:26:01.686Z,94783.00
2024-03-19T00:27:01.728Z,94783.00
2024-03-19T00:28:01.776Z,94785.00
2024-03-19T00:29:01.832Z,94785.00
2024-03-19T00:30:01.967Z,94785.00
2024-03-19T00:31:01.964Z,94783.00
2024-03-19T00:32:01.982Z,94786.00
2024-03-19T00:33:02.042Z,94785.00
2024-03-19T00:34:02.091Z,94784.00
2024-03-19T00:35:02.130Z,94783.00
2024-03-19T00:36:02.205Z,94784.00
2024-03-19T00:37:02.262Z,94784.00
2024-03-19T00:38:02.296Z,94784.00
2024-03-19T00:39:02.345Z,94783.00
2024-03-19T00:40:02.405Z,94783.00
2024-03-19T00:41:02.436Z,94779.00
2024-03-19T00:42:02.489Z,94779.00
2024-03-19T00:43:02.614Z,94774.00
2024-03-19T00:44:02.613Z,94773.00
2024-03-19T00:45:02.671Z,94775.00
2024-03-19T00:46:02.747Z,94774.00
2024-03-19T00:47:02.760Z,94777.00
2024-03-19T00:48:02.817Z,94775.00
2024-03-19T00:49:02.886Z,94774.00
2024-03-19T00:50:02.929Z,94774.00
2024-03-19T00:51:02.982Z,94774.00
2024-03-19T00:52:03.056Z,94775.00
2024-03-19T00:53:03.119Z,94773.00
2024-03-19T00:54:03.133Z,94774.00
2024-03-19T00:55:03.218Z,94774.00
2024-03-19T00:56:03.263Z,94773.00
2024-03-19T00:57:03.310Z,94773.00
2024-03-19T00:58:03.386Z,94770.00
2024-03-19T00:59:03.445Z,94769.00
2024-03-19T01:00:03.476Z,94770.00
2024-03-19T01:01:03.530Z,94769.00
2024-03-19T01:02:03.596Z,94768.00
2024-03-19T01:03:03.660Z,94769.00
2024-03-19T01:04:05.640Z,94770.00
2024-03-19T01:05:03.767Z,94767.00
2024-03-19T01:06:03.833Z,94767.00
2024-03-19T01:07:03.866Z,94767.00
2024-03-19T01:08:03.914Z,94763.00
2024-03-19T01:09:03.939Z,94763.00
2024-03-19T01:10:04.012Z,94763.00
2024-03-19T01:11:04.064Z,94765.00
2024-03-19T01:12:04.078Z,94766.00
2024-03-19T01:13:04.128Z,94766.00
2024-03-19T01:14:04.180Z,94769.00
2024-03-19T01:15:04.260Z,94771.00
2024-03-19T01:16:04.316Z,94767.00
2024-03-19T01:17:04.411Z,94768.00
2024-03-19T01:18:04.861Z,94765.00
2024-03-19T01:19:04.475Z,94766.00
2024-03-19T01:20:04.545Z,94769.00
2024-03-19T01:21:04.594Z,94768.00
2024-03-19T01:22:04.696Z,94768.00
2024-03-19T01:23:04.708Z,94770.00
2024-03-19T01:24:04.822Z,94771.00
2024-03-19T01:25:04.831Z,94772.00
2024-03-19T01:26:04.886Z,94771.00
2024-03-19T01:27:04.923Z,94775.00
2024-03-19T01:28:04.988Z,94776.00
2024-03-19T01:29:05.036Z,94777.00
2024-03-19T01:30:05.109Z,94778.00
2024-03-19T01:31:05.158Z,94778.00
2024-03-19T01:32:05.178Z,94779.00
2024-03-19T01:33:05.236Z,94777.00
2024-03-19T01:34:05.307Z,94777.00
2024-03-19T01:35:05.348Z,94777.00
2024-03-19T01:36:05.417Z,94773.00
2024-03-19T01:37:05.471Z,94774.00
2024-03-19T01:38:05.513Z,94775.00
2024-03-19T01:39:05.564Z,94774.00
2024-03-19T01:40:05.625Z,94773.00
2024-03-19T01:41:05.687Z,94773.00
2024-03-19T01:42:05.857Z,94772.00
2024-03-19T01:43:05.882Z,94771.00
2024-03-19T01:44:05.875Z,94775.00
2024-03-19T01:45:05.919Z,94775.00
2024-03-19T01:46:05.963Z,94778.00
2024-03-19T01:47:06.018Z,94776.00
2024-03-19T01:48:06.072Z,94778.00
2024-03-19T01:49:06.130Z,94777.00
2024-03-19T01:50:06.173Z,94776.00
2024-03-19T01:51:06.197Z,94778.00
2024-03-19T01:52:06.263Z,94776.00
2024-03-19T01:53:06.297Z,94776.00
2024-03-19T01:54:06.355Z,94776.00
2024-03-19T01:55:06.420Z,94777.00
2024-03-19T01:56:06.433Z,94778.00
2024-03-19T01:57:06.506Z,94778.00
2024-03-19T01:58:06.566Z,94779.00
2024-03-19T01:59:06.605Z,94779.00
2024-03-19T02:00:06.677Z,94778.00
2024-03-19T02:01:06.701Z,94776.00
2024-03-19T02:02:06.752Z,94775.00
2024-03-19T02:03:06.812Z,94774.00
2024-03-19T02:04:06.848Z,94774.00
2024-03-19T02:05:06.910Z,94779.00
2024-03-19T02:06:06.954Z,94779.00
2024-03-19T02:07:07.004Z,94782.00
2024-03-19T02:08:07.030Z,94778.00
2024-03-19T02:09:07.099Z,94779.00
2024-03-19T02:10:07.139Z,94779.00
2024-03-19T02:11:07.185Z,94775.00
2024-03-19T02:12:07.228Z,94775.00
2024-03-19T02:13:07.271Z,94773.00
2024-03-19T02:14:07.331Z,94773.00
2024-03-19T02:15:07.364Z,94769.00
2024-03-19T02:16:07.423Z,94765.00
2024-03-19T02:17:07.470Z,94767.00
2024-03-19T02:18:07.517Z,94766.00
2024-03-19T02:19:07.587Z,94766.00
2024-03-19T02:20:07.648Z,94768.00
2024-03-19T02:21:07.687Z,94768.00
2024-03-19T02:22:07.734Z,94767.00
2024-03-19T02:23:07.804Z,94764.00
2024-03-19T02:24:07.838Z,94761.00
2024-03-19T02:25:07.903Z,94759.00
2024-03-19T02:26:07.915Z,94756.00
2024-03-19T02:27:07.981Z,94753.00
2024-03-19T02:28:08.028Z,94755.00
2024-03-19T02:29:08.067Z,94758.00
2024-03-19T02:30:08.114Z,94759.00
2024-03-19T02:31:08.167Z,94760.00
2024-03-19T02:32:08.201Z,94758.00
2024-03-19T02:33:08.236Z,94756.00
2024-03-19T02:34:08.304Z,94753.00
2024-03-19T02:35:08.356Z,94751.00
2024-03-19T02:36:08.402Z,94753.00
2024-03-19T02:37:08.437Z,94756.00
2024-03-19T02:38:08.504Z,94758.00
2024-03-19T02:39:08.536Z,94760.00
2024-03-19T02:40:08.591Z,94758.00
2024-03-19T02:41:08.672Z,94756.00
2024-03-19T02:42:08.664Z,94752.00
2024-03-19T02:43:08.733Z,94751.00
2024-03-19T02:44:08.778Z,94749.00
2024-03-19T02:45:08.826Z,94748.00
2024-03-19T02:46:08.894Z,94748.00
2024-03-19T02:47:08.940Z,94747.00
2024-03-19T02:48:08.980Z,94748.00
2024-03-19T02:49:09.010Z,94745.00
2024-03-19T02:50:09.098Z,94746.00
2024-03-19T02:51:09.092Z,94748.00
2024-03-19T02:52:09.143Z,94751.00
2024-03-19T02:53:09.186Z,94757.00
2024-03-19T02:54:09.259Z,94756.00
2024-03-19T02:55:09.289Z,94756.00
2024-03-19T02:56:09.340Z,94751.00
2024-03-19T02:57:09.372Z,94753.00
2024-03-19T02:58:09.457Z,94755.00
2024-03-19T02:59:09.482Z,94751.00
2024-03-19T03:00:09.532Z,94753.00
2024-03-19T03:01:09.612Z,94753.00
2024-03-19T03:02:09.618Z,94753.00
2024-03-19T03:03:09.688Z,94753.00
2024-03-19T03:04:09.707Z,94752.00
2024-03-19T03:05:09.763Z,94752.00
2024-03-19T03:06:09.839Z,94757.00
2024-03-19T03:07:09.882Z,94757.00
2024-03-19T03:08:10.414Z,94756.00
2024-03-19T03:09:10.022Z,94756.00
2024-03-19T03:10:10.048Z,94756.00
2024-03-19T03:11:10.077Z,94756.00
2024-03-19T03:12:10.135Z,94759.00
2024-03-19T03:13:10.175Z,94760.00
2024-03-19T03:14:10.220Z,94760.00
2024-03-19T03:15:10.274Z,94759.00
2024-03-19T03:16:10.288Z,94758.00
2024-03-19T03:17:10.357Z,94757.00
2024-03-19T03:18:10.422Z,94757.00
2024-03-19T03:19:10.459Z,94760.00
2024-03-19T03:20:10.483Z,94760.00
2024-03-19T03:21:10.594Z,94760.00
2024-03-19T03:22:10.599Z,94761.00
2024-03-19T03:23:10.628Z,94762.00
2024-03-19T03:24:10.681Z,94764.00
2024-03-19T03:25:10.710Z,94763.00
2024-03-19T03:26:10.744Z,94767.00
2024-03-19T03:27:10.793Z,94768.00
2024-03-19T03:28:10.875Z,94768.00
2024-03-19T03:29:10.893Z,94768.00
2024-03-19T03:30:10.972Z,94765.00
2024-03-19T03:31:11.024Z,94768.00
2024-03-19T03:32:11.058Z,94769.00
2024-03-19T03:33:11.113Z,94772.00
2024-03-19T03:34:11.136Z,94775.00
2024-03-19T03:35:11.180Z,94775.00
2024-03-19T03:36:11.209Z,94776.00
2024-03-19T03:37:15.308Z,94779.00
2024-03-19T03:38:12.293Z,94781.00
2024-03-19T03:39:11.250Z,94784.00
2024-03-19T03:40:11.261Z,94785.00
2024-03-19T03:41:11.257Z,94789.00
2024-03-19T03:42:11.261Z,94791.00
2024-03-19T03:43:11.264Z,94792.00
2024-03-19T03:44:11.288Z,94794.00
2024-03-19T03:45:11.281Z,94793.00
2024-03-19T03:46:11.260Z,94792.00
2024-03-19T03:47:11.285Z,94794.00
2024-03-19T03:48:11.260Z,94794.00
2024-03-19T03:49:11.267Z,94797.00
2024-03-19T03:50:11.267Z,94798.00
2024-03-19T03:51:11.263Z,94799.00
2024-03-19T03:52:11.327Z,94797.00
2024-03-19T03:53:11.348Z,94801.00
2024-03-19T03:54:11.471Z,94797.00
2024-03-19T03:55:11.488Z,94796.00
2024-03-19T03:56:11.504Z,94795.00
2024-03-19T03:57:11.576Z,94799.00
2024-03-19T03:58:11.604Z,94797.00
2024-03-19T03:59:11.645Z,94799.00
2024-03-19T04:00:11.720Z,94798.00
2024-03-19T04:01:11.752Z,94799.00
2024-03-19T04:02:11.797Z,94799.00
2024-03-19T04:03:11.859Z,94798.00
2024-03-19T04:04:11.911Z,94799.00
2024-03-19T04:05:11.984Z,94800.00
2024-03-19T04:06:12.032Z,94797.00
2024-03-19T04:07:12.066Z,94800.00
2024-03-19T04:08:12.077Z,94800.00
2024-03-19T04:09:12.144Z,94799.00
2024-03-19T04:10:12.142Z,94797.00
2024-03-19T04:11:12.193Z,94798.00
2024-03-19T04:12:12.248Z,94801.00
2024-03-19T04:13:12.277Z,94803.00
2024-03-19T04:14:12.352Z,94805.00
2024-03-19T04:15:12.364Z,94807.00
2024-03-19T04:16:12.389Z,94805.00
2024-03-19T04:17:12.456Z,94805.00
2024-03-19T04:18:12.498Z,94804.00
2024-03-19T04:19:12.542Z,94804.00
2024-03-19T04:20:12.601Z,94805.00
2024-03-19T04:21:12.635Z,94805.00
2024-03-19T04:22:12.700Z,94805.00
2024-03-19T04:23:12.761Z,94805.00
2024-03-19T04:24:12.783Z,94802.00
2024-03-19T04:25:12.849Z,94802.00
2024-03-19T04:26:12.907Z,94801.00
2024-03-19T04:27:12.922Z,94802.00
2024-03-19T04:28:12.986Z,94801.00
2024-03-19T04:29:13.020Z,94804.00
2024-03-19T04:30:13.070Z,94804.00
2024-03-19T04:31:13.096Z,94804.00
2024-03-19T04:32:13.177Z,94805.00
2024-03-19T04:33:13.202Z,94804.00
2024-03-19T04:34:20.974Z,94806.00
2024-03-19T04:35:20.962Z,94807.00
2024-03-19T04:36:20.968Z,94806.00
2024-03-19T04:37:20.982Z,94804.00
2024-03-19T04:38:21.003Z,94804.00
2024-03-19T04:39:20.977Z,94802.00
2024-03-19T04:40:20.986Z,94803.00
2024-03-19T04:41:20.976Z,94804.00
2024-03-19T04:42:20.992Z,94803.00
2024-03-19T04:43:20.998Z,94801.00
2024-03-19T04:44:20.996Z,94804.00
2024-03-19T04:45:20.976Z,94804.00
2024-03-19T04:46:21.006Z,94805.00
2024-03-19T04:47:21.003Z,94805.00
2024-03-19T04:48:20.997Z,94806.00
2024-03-19T04:49:20.999Z,94807.00
2024-03-19T04:50:20.992Z,94807.00
2024-03-19T04:51:21.028Z,94804.00
2024-03-19T04:52:20.984Z,94805.00
2024-03-19T04:53:20.991Z,94804.00
2024-03-19T04:54:21.003Z,94805.00
2024-03-19T04:55:21.004Z,94805.00
2024-03-19T04:56:21.047Z,94807.00
2024-03-19T04:57:21.011Z,94808.00
2024-03-19T04:58:21.023Z,94808.00
2024-03-19T04:59:21.026Z,94806.00
2024-03-19T05:00:21.018Z,94807.00
2024-03-19T05:01:21.012Z,94809.00
2024-03-19T05:02:21.021Z,94811.00
2024-03-19T05:03:21.024Z,94810.00
2024-03-19T05:04:21.024Z,94809.00
2024-03-19T05:05:21.045Z,94807.00
2024-03-19T05:06:21.014Z,94803.00
2024-03-19T05:07:21.032Z,94803.00
2024-03-19T05:08:21.620Z,94805.00
2024-03-19T05:09:21.030Z,94807.00
2024-03-19T05:10:21.034Z,94806.00
2024-03-19T05:11:21.041Z,94807.00
2024-03-19T05:12:21.078Z,94806.00
2024-03-19T05:13:21.032Z,94806.00
2024-03-19T05:14:21.044Z,94805.00
2024-03-19T05:15:21.029Z,94806.00
2024-03-19T05:16:21.043Z,94806.00
2024-03-19T05:17:21.037Z,94808.00
2024-03-19T05:18:21.042Z,94807.00
2024-03-19T05:19:21.021Z,94808.00
2024-03-19T05:20:21.031Z,94811.00
2024-03-19T05:21:21.050Z,94812.00
2024-03-19T05:22:21.051Z,94811.00
2024-03-19T05:23:21.059Z,94811.00
2024-03-19T05:24:21.055Z,94812.00
2024-03-19T05:25:21.050Z,94813.00
2024-03-19T05:26:21.034Z,94810.00
2024-03-19T05:27:21.041Z,94812.00
2024-03-19T05:28:21.064Z,94814.00
2024-03-19T05:29:21.039Z,94813.00
2024-03-19T05:30:21.047Z,94817.00
2024-03-19T05:31:21.062Z,94818.00
2024-03-19T05:32:21.045Z,94818.00
2024-03-19T05:33:21.068Z,94817.00
2024-03-19T05:34:21.045Z,94817.00
2024-03-19T05:35:21.078Z,94816.00
2024-03-19T05:36:21.064Z,94817.00
2024-03-19T05:37:21.055Z,94817.00
2024-03-19T05:38:21.087Z,94815.00
2024-03-19T05:39:21.091Z,94814.00
2024-03-19T05:40:21.075Z,94815.00
2024-03-19T05:41:21.076Z,94815.00
2024-03-19T05:42:21.068Z,94814.00
2024-03-19T05:43:21.080Z,94815.00
2024-03-19T05:44:21.098Z,94815.00
2024-03-19T05:45:21.080Z,94818.00
2024-03-19T05:46:21.069Z,94818.00
2024-03-19T05:47:21.067Z,94820.00
2024-03-19T05:48:21.173Z,94819.00
2024-03-19T05:49:21.191Z,94821.00
2024-03-19T05:50:21.268Z,94822.00
2024-03-19T05:51:21.351Z,94822.00
2024-03-19T05:52:21.408Z,94822.00
2024-03-19T05:53:24.404Z,94822.00
2024-03-19T05:54:21.435Z,94824.00
2024-03-19T05:55:21.419Z,94827.00
2024-03-19T05:56:21.431Z,94829.00
2024-03-19T05:57:21.443Z,94829.00
2024-03-19T05:58:21.428Z,94828.00
2024-03-19T05:59:21.440Z,94831.00
2024-03-19T06:00:21.448Z,94834.00
2024-03-19T06:01:21.462Z,94835.00
2024-03-19T06:02:21.437Z,94835.00
2024-03-19T06:03:21.461Z,94836.00
2024-03-19T06:04:21.476Z,94838.00
2024-03-19T06:05:21.442Z,94839.00
2024-03-19T06:06:21.470Z,94841.00
2024-03-19T06:07:21.468Z,94840.00
2024-03-19T06:08:21.490Z,94839.00
2024-03-19T06:09:21.487Z,94837.00
2024-03-19T06:10:21.478Z,94837.00
2024-03-19T06:11:21.453Z,94836.00
2024-03-19T06:12:21.475Z,94841.00
2024-03-19T06:13:21.485Z,94839.00
2024-03-19T06:14:21.455Z,94841.00
2024-03-19T06:15:21.474Z,94841.00
2024-03-19T06:16:21.502Z,94843.00
2024-03-19T06:17:21.474Z,94843.00
2024-03-19T06:18:21.476Z,94846.00
2024-03-19T06:19:26.164Z,94845.00
2024-03-19T06:20:22.491Z,94849.00
2024-03-19T06:21:21.506Z,94849.00
2024-03-19T06:22:21.508Z,94847.00
2024-03-19T06:23:21.478Z,94849.00
2024-03-19T06:24:21.485Z,94850.00
2024-03-19T06:25:21.521Z,94849.00
2024-03-19T06:26:21.483Z,94845.00
2024-03-19T06:27:21.498Z,94844.00
2024-03-19T06:28:21.524Z,94846.00
2024-03-19T06:29:21.492Z,94848.00
2024-03-19T06:30:21.502Z,94849.00
2024-03-19T06:31:21.523Z,94852.00
2024-03-19T06:32:21.531Z,94855.00
2024-03-19T06:33:21.606Z,94856.00
2024-03-19T06:34:21.670Z,94859.00
2024-03-19T06:35:21.695Z,94860.00
2024-03-19T06:36:21.766Z,94859.00
2024-03-19T06:37:21.793Z,94860.00
2024-03-19T06:38:21.852Z,94861.00
2024-03-19T06:39:21.885Z,94864.00
2024-03-19T06:40:21.946Z,94863.00
2024-03-19T06:41:22.017Z,94864.00
2024-03-19T06:42:22.089Z,94863.00
2024-03-19T06:43:22.099Z,94866.00
2024-03-19T06:44:22.128Z,94864.00
2024-03-19T06:45:22.202Z,94866.00
2024-03-19T06:46:22.218Z,94867.00
2024-03-19T06:47:22.239Z,94866.00
2024-03-19T06:48:22.300Z,94867.00
2024-03-19T06:49:22.383Z,94866.00
2024-03-19T06:50:22.387Z,94866.00
2024-03-19T06:51:22.453Z,94866.00
2024-03-19T06:52:22.451Z,94866.00
2024-03-19T06:53:22.495Z,94866.00
2024-03-19T06:54:22.556Z,94869.00
2024-03-19T06:55:22.588Z,94868.00
2024-03-19T06:56:22.651Z,94868.00
2024-03-19T06:57:22.681Z,94868.00
2024-03-19T06:58:22.731Z,94866.00
2024-03-19T06:59:22.761Z,94867.00
2024-03-19T07:00:22.825Z,94867.00
2024-03-19T07:01:22.876Z,94867.00
2024-03-19T07:02:22.927Z,94866.00
2024-03-19T07:03:22.988Z,94867.00
2024-03-19T07:04:23.057Z,94866.00
2024-03-19T07:05:23.101Z,94866.00
2024-03-19T07:06:23.167Z,94867.00
2024-03-19T07:07:23.212Z,94867.00
2024-03-19T07:08:23.288Z,94869.00
2024-03-19T07:09:23.360Z,94869.00
2024-03-19T07:10:23.401Z,94871.00
2024-03-19T07:11:23.495Z,94870.00
2024-03-19T07:12:23.510Z,94873.00
2024-03-19T07:13:23.631Z,94873.00
2024-03-19T07:14:23.684Z,94874.00
2024-03-19T07:15:23.713Z,94874.00
2024-03-19T07:16:23.781Z,94875.00
2024-03-19T07:17:24.275Z,94877.00
2024-03-19T07:18:23.896Z,94876.00
2024-03-19T07:19:23.951Z,94877.00
2024-03-19T07:20:24.018Z,94877.00
2024-03-19T07:21:24.071Z,94881.00
2024-03-19T07:22:24.160Z,94879.00
2024-03-19T07:23:24.225Z,94880.00
2024-03-19T07:24:24.309Z,94879.00
2024-03-19T07:25:24.343Z,94879.00
2024-03-19T07:26:24.419Z,94881.00
2024-03-19T07:27:24.457Z,94881.00
2024-03-19T07:28:24.522Z,94879.00
2024-03-19T07:29:24.602Z,94881.00
2024-03-19T07:30:24.671Z,94882.00
2024-03-19T07:31:24.698Z,94883.00
2024-03-19T07:32:24.795Z,94885.00
2024-03-19T07:33:24.867Z,94887.00
2024-03-19T07:34:24.921Z,94888.00
2024-03-19T07:35:24.973Z,94887.00
2024-03-19T07:36:25.118Z,94888.00
2024-03-19T07:37:25.052Z,94889.00
2024-03-19T07:38:25.120Z,94893.00
2024-03-19T07:39:25.190Z,94891.00
2024-03-19T07:40:25.242Z,94893.00
2024-03-19T07:41:25.298Z,94893.00
2024-03-19T07:42:25.353Z,94895.00
2024-03-19T07:43:25.431Z,94895.00
2024-03-19T07:44:25.475Z,94897.00
2024-03-19T07:45:25.542Z,94895.00
2024-03-19T07:46:25.580Z,94896.00
2024-03-19T07:47:25.704Z,94898.00
2024-03-19T07:48:25.740Z,94897.00
2024-03-19T07:49:25.771Z,94898.00
2024-03-19T07:50:25.857Z,94896.00
2024-03-19T07:51:25.857Z,94897.00
2024-03-19T07:52:25.888Z,94898.00
2024-03-19T07:53:25.955Z,94899.00
2024-03-19T07:54:26.076Z,94899.00
2024-03-19T07:55:26.085Z,94899.00
2024-03-19T07:56:26.090Z,94899.00
2024-03-19T07:57:26.187Z,94899.00
2024-03-19T07:58:26.213Z,94900.00
2024-03-19T07:59:26.293Z,94898.00
2024-03-19T08:00:26.381Z,94898.00
2024-03-19T08:01:26.393Z,94901.00
2024-03-19T08:02:26.437Z,94897.00
2024-03-19T08:03:26.490Z,94899.00
2024-03-19T08:04:26.587Z,94898.00
2024-03-19T08:05:27.858Z,94899.00
2024-03-19T08:06:26.659Z,94898.00
2024-03-19T08:07:26.737Z,94899.00
2024-03-19T08:08:26.829Z,94900.00
2024-03-19T08:09:26.857Z,94899.00
2024-03-19T08:10:26.898Z,94899.00
2024-03-19T08:11:26.991Z,94897.00
2024-03-19T08:12:27.998Z,94897.00
2024-03-19T08:13:27.069Z,94899.00
2024-03-19T08:14:27.120Z,94900.00
2024-03-19T08:15:27.180Z,94901.00
2024-03-19T08:16:27.219Z,94901.00
2024-03-19T08:17:27.272Z,94901.00
2024-03-19T08:18:27.318Z,94902.00
2024-03-19T08:19:27.396Z,94903.00
2024-03-19T08:20:27.440Z,94905.00
2024-03-19T08:21:27.507Z,94905.00
2024-03-19T08:22:27.516Z,94909.00
2024-03-19T08:23:27.562Z,94911.00
2024-03-19T08:24:27.603Z,94910.00
2024-03-19T08:25:27.656Z,94912.00
2024-03-19T08:26:27.705Z,94912.00
2024-03-19T08:27:27.751Z,94912.00
2024-03-19T08:28:27.789Z,94913.00
2024-03-19T08:29:27.852Z,94912.00
2024-03-19T08:30:27.898Z,94911.00
2024-03-19T08:31:27.944Z,94911.00
2024-03-19T08:32:27.986Z,94913.00
2024-03-19T08:33:28.028Z,94910.00
2024-03-19T08:34:28.084Z,94910.00
2024-03-19T08:35:28.135Z,94911.00
2024-03-19T08:36:28.198Z,94912.00
2024-03-19T08:37:28.243Z,94913.00
2024-03-19T08:38:28.252Z,94913.00
2024-03-19T08:39:28.280Z,94914.00
2024-03-19T08:40:28.329Z,94912.00
2024-03-19T08:41:28.365Z,94913.00
2024-03-19T08:42:28.394Z,94913.00
2024-03-19T08:43:28.421Z,94914.00
2024-03-19T08:44:28.471Z,94913.00
2024-03-19T08:45:28.503Z,94916.00
2024-03-19T08:46:28.527Z,94917.00
2024-03-19T08:47:28.596Z,94917.00
2024-03-19T08:48:28.652Z,94917.00
2024-03-19T08:49:28.766Z,94916.00
2024-03-19T08:50:28.688Z,94916.00
2024-03-19T08:51:28.711Z,94916.00
2024-03-19T08:52:28.733Z,94915.00
2024-03-19T08:53:28.781Z,94913.00
2024-03-19T08:54:28.816Z,94915.00
2024-03-19T08:55:28.891Z,94914.00
2024-03-19T08:56:28.884Z,94910.00
2024-03-19T08:57:28.917Z,94910.00
2024-03-19T08:58:28.932Z,94912.00
2024-03-19T08:59:28.974Z,94912.00
2024-03-19T09:00:29.013Z,94913.00
2024-03-19T09:01:29.039Z,94912.00
2024-03-19T09:02:29.059Z,94911.00
2024-03-19T09:03:29.118Z,94912.00
2024-03-19T09:04:29.169Z,94913.00
2024-03-19T09:05:29.174Z,94914.00
2024-03-19T09:06:29.201Z,94912.00
2024-03-19T09:07:29.197Z,94912.00
2024-03-19T09:08:29.227Z,94914.00
2024-03-19T09:09:29.310Z,94912.00
2024-03-19T09:10:29.280Z,94915.00
2024-03-19T09:11:29.286Z,94916.00
2024-03-19T09:12:29.332Z,94917.00
2024-03-19T09:13:29.339Z,94915.00
2024-03-19T09:14:29.357Z,94915.00
2024-03-19T09:15:29.372Z,94914.00
2024-03-19T09:16:29.480Z,94915.00
2024-03-19T09:17:29.451Z,94915.00
2024-03-19T09:18:29.466Z,94912.00
2024-03-19T09:19:29.479Z,94910.00
2024-03-19T09:20:29.496Z,94910.00
2024-03-19T09:21:29.736Z,94909.00
2024-03-19T09:22:29.542Z,94907.00
2024-03-19T09:23:29.561Z,94909.00
2024-03-19T09:24:29.577Z,94910.00
2024-03-19T09:25:29.593Z,94909.00
2024-03-19T09:26:29.618Z,94908.00
2024-03-19T09:27:29.680Z,94908.00
2024-03-19T09:28:29.703Z,94907.00
2024-03-19T09:29:29.775Z,94905.00
2024-03-19T09:30:29.828Z,94905.00
2024-03-19T09:31:29.879Z,94904.00
2024-03-19T09:32:29.963Z,94904.00
2024-03-19T09:33:29.949Z,94904.00
2024-03-19T09:34:30.025Z,94902.00
2024-03-19T09:35:30.066Z,94902.00
2024-03-19T09:36:30.121Z,94900.00
2024-03-19T09:37:30.146Z,94903.00
2024-03-19T09:38:30.206Z,94900.00
2024-03-19T09:39:30.292Z,94899.00
2024-03-19T09:40:30.353Z,94899.00
2024-03-19T09:41:30.415Z,94902.00
2024-03-19T09:42:30.526Z,94898.00
2024-03-19T09:43:30.522Z,94898.00
2024-03-19T09:44:30.580Z,94899.00
2024-03-19T09:45:30.637Z,94898.00
2024-03-19T09:46:30.671Z,94899.00
2024-03-19T09:47:30.767Z,94897.00
2024-03-19T09:48:30.777Z,94898.00
2024-03-19T09:49:30.821Z,94898.00
2024-03-19T09:50:30.849Z,94899.00
2024-03-19T09:51:30.899Z,94899.00
2024-03-19T09:52:30.926Z,94898.00
2024-03-19T09:53:30.953Z,94896.00
2024-03-19T09:54:30.970Z,94895.00
2024-03-19T09:55:31.044Z,94895.00
2024-03-19T09:56:31.061Z,94892.00
2024-03-19T09:57:31.076Z,94892.00
2024-03-19T09:58:31.130Z,94893.00
2024-03-19T09:59:31.154Z,94891.00
2024-03-19T10:00:31.182Z,94891.00
2024-03-19T10:01:31.230Z,94892.00
2024-03-19T10:02:31.302Z,94890.00
2024-03-19T10:03:31.287Z,94890.00
2024-03-19T10:04:31.292Z,94888.00
2024-03-19T10:05:31.381Z,94887.00
2024-03-19T10:06:31.371Z,94885.00
2024-03-19T10:07:31.402Z,94884.00
2024-03-19T10:08:31.425Z,94881.00
2024-03-19T10:09:31.453Z,94878.00
2024-03-19T10:10:31.471Z,94882.00
2024-03-19T10:11:31.556Z,94881.00
2024-03-19T10:12:31.525Z,94881.00
2024-03-19T10:13:31.550Z,94881.00
2024-03-19T10:14:31.652Z,94879.00
2024-03-19T10:15:31.618Z,94879.00
2024-03-19T10:16:31.637Z,94875.00
2024-03-19T10:17:31.689Z,94874.00
2024-03-19T10:18:31.712Z,94873.00
2024-03-19T10:19:31.725Z,94869.00
2024-03-19T10:20:31.816Z,94869.00
2024-03-19T10:21:31.824Z,94867.00
2024-03-19T10:22:31.839Z,94866.00
2024-03-19T10:23:31.897Z,94865.00
2024-03-19T10:24:31.928Z,94866.00
2024-03-19T10:25:32.041Z,94866.00
2024-03-19T10:26:32.063Z,94864.00
2024-03-19T10:28:25.557Z,94862.00
2024-03-19T10:29:25.572Z,94861.00
2024-03-19T10:30:25.559Z,94861.00
2024-03-19T10:31:25.665Z,94862.00
2024-03-19T10:32:26.742Z,94860.00
2024-03-19T10:33:25.593Z,94861.00
2024-03-19T10:34:25.573Z,94862.00
2024-03-19T10:35:25.585Z,94858.00
2024-03-19T10:36:25.578Z,94858.00
2024-03-19T10:37:25.567Z,94856.00
2024-03-19T10:38:32.792Z,94857.00
2024-03-19T10:39:26.591Z,94857.00
2024-03-19T10:40:25.581Z,94859.00
2024-03-19T10:41:25.586Z,94857.00
2024-03-19T10:42:25.601Z,94856.00
2024-03-19T10:43:25.661Z,94854.00
2024-03-19T10:44:25.587Z,94854.00
2024-03-19T10:45:25.623Z,94853.00
2024-03-19T10:46:25.585Z,94852.00
2024-03-19T10:47:25.649Z,94850.00
2024-03-19T10:48:25.628Z,94848.00
2024-03-19T10:49:25.715Z,94849.00
2024-03-19T10:50:25.745Z,94847.00
2024-03-19T10:51:25.780Z,94848.00
2024-03-19T10:52:25.857Z,94847.00
2024-03-19T10:53:25.882Z,94843.00
2024-03-19T10:54:25.936Z,94845.00
2024-03-19T10:55:25.979Z,94844.00
2024-03-19T10:56:26.022Z,94843.00
2024-03-19T10:57:26.082Z,94843.00
2024-03-19T10:58:26.123Z,94841.00
2024-03-19T10:59:26.215Z,94841.00
2024-03-19T11:00:26.206Z,94842.00
2024-03-19T11:01:26.219Z,94840.00
2024-03-19T11:02:26.233Z,94837.00
2024-03-19T11:03:26.236Z,94836.00
2024-03-19T11:04:26.277Z,94835.00
2024-03-19T11:05:26.298Z,94834.00
2024-03-19T11:06:26.365Z,94834.00
2024-03-19T11:07:26.392Z,94835.00
2024-03-19T11:08:26.405Z,94833.00
2024-03-19T11:09:26.419Z,94832.00
2024-03-19T11:10:26.433Z,94831.00
2024-03-19T11:11:26.462Z,94831.00
2024-03-19T11:12:26.513Z,94831.00
2024-03-19T11:13:26.546Z,94828.00
2024-03-19T11:14:26.544Z,94826.00
2024-03-19T11:15:26.585Z,94825.00
2024-03-19T11:16:26.622Z,94826.00
2024-03-19T11:17:26.710Z,94824.00
2024-03-19T11:18:26.642Z,94825.00
2024-03-19T11:19:26.690Z,94823.00
2024-03-19T11:20:26.744Z,94824.00
2024-03-19T11:21:26.758Z,94823.00
2024-03-19T11:22:26.766Z,94824.00
2024-03-19T11:23:26.851Z,94823.00
2024-03-19T11:24:26.850Z,94821.00
2024-03-19T11:25:26.871Z,94823.00
2024-03-19T11:26:26.902Z,94822.00
2024-03-19T11:27:26.946Z,94821.00
2024-03-19T11:28:27.012Z,94821.00
2024-03-19T11:29:27.034Z,94819.00
2024-03-19T11:30:27.049Z,94816.00
2024-03-19T11:31:27.088Z,94817.00
2024-03-19T11:32:27.140Z,94814.00
2024-03-19T11:33:27.167Z,94811.00
2024-03-19T11:34:27.187Z,94812.00
2024-03-19T11:35:27.221Z,94810.00
2024-03-19T11:36:27.269Z,94809.00
2024-03-19T11:37:27.287Z,94807.00
2024-03-19T11:38:27.322Z,94805.00
2024-03-19T11:39:27.370Z,94806.00
2024-03-19T11:40:27.393Z,94804.00
2024-03-19T11:41:33.122Z,94804.00
2024-03-19T11:42:28.433Z,94804.00
2024-03-19T11:43:27.423Z,94803.00
2024-03-19T11:44:27.441Z,94803.00
2024-03-19T11:45:27.437Z,94803.00